createdAt,value
2019-03-10T00:00:25.296Z,98514.47
2019-03-10T00:02:54.742Z,98520.53
2019-03-10T00:05:29.706Z,98528.36
2019-03-10T00:07:56.949Z,98522.75
2019-03-10T00:10:27.287Z,98526.14
2019-03-10T00:12:54.351Z,98527.08
2019-03-10T00:15:21.470Z,98531.44
2019-03-10T00:17:48.508Z,98538.42
2019-03-10T00:20:15.613Z,98534.51
2019-03-10T00:22:42.878Z,98528.50
2019-03-10T00:25:10.131Z,98532.83
2019-03-10T00:27:37.175Z,98536.41
2019-03-10T00:30:04.523Z,98541.71
2019-03-10T00:32:33.182Z,98547.38
2019-03-10T00:35:00.362Z,98549.92
2019-03-10T00:37:27.538Z,98556.92
2019-03-10T00:40:12.376Z,98550.09
2019-03-10T00:43:05.306Z,98558.66
2019-03-10T00:46:09.704Z,98549.98
2019-03-10T00:49:23.481Z,98550.02
2019-03-10T00:52:02.543Z,98555.77
2019-03-10T00:54:29.631Z,98561.91
2019-03-10T00:56:56.681Z,98566.70
2019-03-10T00:59:24.274Z,98571.94
2019-03-10T01:01:53.696Z,98576.67
2019-03-10T01:04:20.872Z,98589.70
2019-03-10T01:06:50.333Z,98591.56
2019-03-10T01:09:17.408Z,98593.78
2019-03-10T01:11:44.619Z,98590.80
2019-03-10T01:14:11.811Z,98591.73
2019-03-10T01:16:41.457Z,98583.13
2019-03-10T01:19:08.664Z,98589.19
2019-03-10T01:21:37.128Z,98591.42
2019-03-10T01:24:04.285Z,98580.09
2019-03-10T01:26:31.344Z,98588.36
2019-03-10T01:28:58.832Z,98599.63
2019-03-10T01:31:50.024Z,98601.81
2019-03-10T01:34:39.873Z,98614.87
2019-03-10T01:37:06.923Z,98617.23
2019-03-10T01:39:33.983Z,98619.90
2019-03-10T01:42:01.056Z,98613.91
2019-03-10T01:44:30.699Z,98621.73
2019-03-10T01:46:57.790Z,98627.09
2019-03-10T01:49:24.873Z,98616.91
2019-03-10T01:51:51.959Z,98633.84
2019-03-10T01:54:19.089Z,98637.89
2019-03-10T01:56:46.214Z,98629.83
2019-03-10T01:59:15.694Z,98626.95
2019-03-10T02:01:45.459Z,98627.95
2019-03-10T02:04:13.991Z,98635.44
2019-03-10T02:06:41.080Z,98635.25
2019-03-10T02:09:08.453Z,98638.66
2019-03-10T02:11:35.503Z,98636.41
2019-03-10T02:14:04.927Z,98632.38
2019-03-10T02:16:32.058Z,98631.48
2019-03-10T02:18:59.120Z,98630.16
2019-03-10T02:21:26.185Z,98629.02
2019-03-10T02:23:55.763Z,98625.77
2019-03-10T02:26:24.870Z,98629.36
2019-03-10T02:28:51.925Z,98623.75
2019-03-10T02:31:19.025Z,98633.90
2019-03-10T02:33:46.094Z,98636.23
2019-03-10T02:36:15.392Z,98642.34
2019-03-10T02:38:42.800Z,98645.88
2019-03-10T02:41:09.860Z,98646.67
2019-03-10T02:43:36.921Z,98648.48
2019-03-10T02:46:06.293Z,98642.61
2019-03-10T02:48:33.356Z,98651.27
2019-03-10T02:51:00.420Z,98644.37
2019-03-10T02:53:29.537Z,98651.37
2019-03-10T02:55:58.539Z,98658.84
2019-03-10T02:58:25.617Z,98654.96
2019-03-10T03:00:52.679Z,98651.98
2019-03-10T03:03:19.761Z,98647.29
2019-03-10T03:05:46.831Z,98657.27
2019-03-10T03:08:16.666Z,98662.89
2019-03-10T03:10:42.857Z,98659.94
2019-03-10T03:13:09.942Z,98661.75
2019-03-10T03:15:37.003Z,98657.06
2019-03-10T03:18:04.960Z,98665.66
2019-03-10T03:20:32.039Z,98669.16
2019-03-10T03:22:59.162Z,98681.25
2019-03-10T03:25:26.228Z,98680.88
2019-03-10T03:27:53.467Z,98684.38
2019-03-10T03:30:20.529Z,98677.98
2019-03-10T03:32:49.307Z,98684.99
2019-03-10T03:35:40.158Z,98686.74
2019-03-10T03:38:09.517Z,98687.95
2019-03-10T03:40:39.506Z,98695.39
2019-03-10T03:43:06.612Z,98694.56
2019-03-10T03:45:33.667Z,98700.66
2019-03-10T03:48:00.737Z,98705.06
2019-03-10T03:50:27.806Z,98701.61
2019-03-10T03:52:54.861Z,98703.81
2019-03-10T03:55:21.917Z,98709.03
2019-03-10T03:57:48.977Z,98707.33
2019-03-10T04:00:16.087Z,98705.64
2019-03-10T04:02:43.597Z,98714.33
2019-03-10T04:05:10.697Z,98715.69
2019-03-10T04:07:37.789Z,98719.18
2019-03-10T04:10:05.099Z,98714.48
2019-03-10T04:12:35.185Z,98724.44
2019-03-10T04:15:04.633Z,98731.39
2019-03-10T04:17:31.704Z,98727.13
2019-03-10T04:19:58.868Z,98724.09
2019-03-10T04:22:25.925Z,98733.70
2019-03-10T04:24:55.479Z,98726.84
2019-03-10T04:27:24.603Z,98736.39
2019-03-10T04:29:51.671Z,98734.29
2019-03-10T04:32:18.735Z,98728.30
2019-03-10T04:34:45.868Z,98724.00
2019-03-10T04:37:13.085Z,98726.65
2019-03-10T04:39:40.156Z,98727.98
2019-03-10T04:42:07.224Z,98723.70
2019-03-10T04:44:36.212Z,98731.58
2019-03-10T04:47:06.352Z,98738.09
2019-03-10T04:49:33.412Z,98751.13
2019-03-10T04:52:00.475Z,98756.05
2019-03-10T04:54:54.851Z,98765.63
2019-03-10T04:57:22.157Z,98760.93
2019-03-10T04:59:49.213Z,98760.53
2019-03-10T05:02:16.280Z,98757.94
2019-03-10T05:04:43.339Z,98771.41
2019-03-10T05:07:10.401Z,98773.60
2019-03-10T05:09:37.588Z,98773.25
2019-03-10T05:12:04.668Z,98782.83
2019-03-10T05:14:31.747Z,98784.61
2019-03-10T05:17:01.611Z,98787.69
2019-03-10T05:19:28.724Z,98792.48
2019-03-10T05:21:55.799Z,98803.79
2019-03-10T05:24:22.868Z,98808.98
2019-03-10T05:26:49.934Z,98806.84
2019-03-10T05:29:19.532Z,98806.91
2019-03-10T05:31:48.362Z,98813.89
2019-03-10T05:34:15.430Z,98823.41
2019-03-10T05:36:42.506Z,98826.49
2019-03-10T05:39:09.571Z,98829.13
2019-03-10T05:41:36.649Z,98829.13
2019-03-10T05:44:03.846Z,98827.45
2019-03-10T05:46:30.947Z,98825.34
2019-03-10T05:49:00.981Z,98828.45
2019-03-10T05:51:28.041Z,98828.89
2019-03-10T05:53:55.196Z,98836.74
2019-03-10T05:56:24.887Z,98835.92
2019-03-10T05:58:54.286Z,98841.14
2019-03-10T06:01:23.455Z,98844.19
2019-03-10T06:03:50.509Z,98844.22
2019-03-10T06:06:17.615Z,98849.44
2019-03-10T06:08:44.681Z,98845.16
2019-03-10T06:11:13.691Z,98852.53
2019-03-10T06:13:40.776Z,98854.75
2019-03-10T06:16:07.827Z,98856.05
2019-03-10T06:18:34.909Z,98860.88
2019-03-10T06:21:03.907Z,98863.06
2019-03-10T06:23:30.972Z,98866.56
2019-03-10T06:25:58.040Z,98867.48
2019-03-10T06:28:25.292Z,98873.10
2019-03-10T06:30:56.329Z,98876.60
2019-03-10T06:33:23.207Z,98877.91
2019-03-10T06:35:50.283Z,98875.80
2019-03-10T06:38:17.406Z,98879.30
2019-03-10T06:40:44.461Z,98886.19
2019-03-10T06:43:13.651Z,98894.82
2019-03-10T06:45:40.708Z,98894.45
2019-03-10T06:48:07.815Z,98894.92
2019-03-10T06:50:34.873Z,98897.95
2019-03-10T06:53:01.939Z,98904.02
2019-03-10T06:55:29.010Z,98903.13
2019-03-10T06:57:57.591Z,98907.48
2019-03-10T07:00:24.681Z,98902.28
2019-03-10T07:02:51.782Z,98898.39
2019-03-10T07:05:18.868Z,98902.72
2019-03-10T07:07:46.116Z,98904.48
2019-03-10T07:10:13.187Z,98906.21
2019-03-10T07:12:40.259Z,98904.02
2019-03-10T07:15:08.207Z,98913.06
2019-03-10T07:17:35.275Z,98917.88
2019-03-10T07:20:02.344Z,98915.67
2019-03-10T07:22:29.437Z,98906.56
2019-03-10T07:24:58.796Z,98916.48
2019-03-10T07:27:32.578Z,98914.80
2019-03-10T07:30:03.748Z,98917.39
2019-03-10T07:32:53.272Z,98917.39
2019-03-10T07:35:39.907Z,98920.84
2019-03-10T07:38:35.715Z,98917.80
2019-03-10T07:41:31.606Z,98915.63
2019-03-10T07:44:10.236Z,98919.55
2019-03-10T07:46:56.794Z,98921.28
2019-03-10T07:49:38.557Z,98919.47
2019-03-10T07:52:25.195Z,98924.67
2019-03-10T07:55:11.839Z,98927.73
2019-03-10T07:57:58.047Z,98931.20
2019-03-10T08:00:46.531Z,98931.23
2019-03-10T08:03:32.075Z,98927.82
2019-03-10T08:06:27.765Z,98936.48
2019-03-10T08:09:13.003Z,98932.54
2019-03-10T08:12:05.722Z,98933.81
2019-03-10T08:14:56.605Z,98929.42
2019-03-10T08:17:34.283Z,98936.31
2019-03-10T08:20:24.767Z,98933.19
2019-03-10T08:23:17.251Z,98928.45
2019-03-10T08:26:02.554Z,98924.24
2019-03-10T08:28:46.738Z,98923.78
2019-03-10T08:31:33.411Z,98926.23
2019-03-10T08:34:18.878Z,98915.09
2019-03-10T08:37:05.583Z,98914.65
2019-03-10T08:39:53.417Z,98917.93
2019-03-10T08:42:29.950Z,98921.63
2019-03-10T08:45:22.573Z,98920.08
2019-03-10T08:48:09.210Z,98919.33
2019-03-10T08:50:55.876Z,98915.70
2019-03-10T08:53:46.776Z,98913.99
2019-03-10T08:56:42.460Z,98925.69
2019-03-10T08:59:29.212Z,98925.34
2019-03-10T09:02:09.124Z,98924.48
2019-03-10T09:04:49.143Z,98927.89
2019-03-10T09:07:41.618Z,98924.67
2019-03-10T09:10:29.203Z,98926.06
2019-03-10T09:13:09.689Z,98925.02
2019-03-10T09:16:12.657Z,98933.44
2019-03-10T09:19:11.524Z,98931.50
2019-03-10T09:22:00.965Z,98936.89
2019-03-10T09:24:42.086Z,98930.39
2019-03-10T09:27:28.586Z,98933.00
2019-03-10T09:30:15.393Z,98929.46
2019-03-10T09:32:52.938Z,98933.16
2019-03-10T09:35:29.318Z,98929.95
2019-03-10T09:38:35.719Z,98931.84
2019-03-10T09:41:16.783Z,98933.72
2019-03-10T09:44:12.866Z,98939.38
2019-03-10T09:46:58.263Z,98932.20
2019-03-10T09:49:47.313Z,98932.12
2019-03-10T09:52:25.194Z,98931.22
2019-03-10T09:55:23.057Z,98932.83
2019-03-10T09:58:15.831Z,98939.58
2019-03-10T10:01:01.236Z,98938.49
2019-03-10T10:03:47.899Z,98945.35
2019-03-10T10:06:46.455Z,98939.30
2019-03-10T10:09:38.979Z,98937.36
2019-03-10T10:12:25.657Z,98939.84
2019-03-10T10:15:13.877Z,98945.35
2019-03-10T10:18:03.579Z,98942.76
2019-03-10T10:20:48.731Z,98946.30
2019-03-10T10:23:41.409Z,98950.02
2019-03-10T10:26:17.974Z,98942.15
2019-03-10T10:29:19.746Z,98957.11
2019-03-10T10:31:57.902Z,98953.05
2019-03-10T10:34:40.079Z,98945.36
2019-03-10T10:37:38.974Z,98949.51
2019-03-10T10:40:24.318Z,98939.44
2019-03-10T10:43:22.599Z,98945.44
2019-03-10T10:46:18.292Z,98940.17
2019-03-10T10:48:59.357Z,98941.31
2019-03-10T10:51:44.812Z,98942.17
2019-03-10T10:54:40.482Z,98946.97
2019-03-10T10:57:15.209Z,98948.23
2019-03-10T11:00:12.068Z,98947.20
2019-03-10T11:02:54.190Z,98940.19
2019-03-10T11:05:33.667Z,98941.69
2019-03-10T11:08:22.975Z,98943.78
2019-03-10T11:11:21.432Z,98937.41
2019-03-10T11:14:26.144Z,98946.12
2019-03-10T11:17:21.754Z,98943.23
2019-03-10T11:20:08.448Z,98942.99
2019-03-10T11:22:58.045Z,98939.94
2019-03-10T11:25:53.598Z,98939.32
2019-03-10T11:28:55.672Z,98940.31
2019-03-10T11:31:49.935Z,98934.59
2019-03-10T11:34:36.610Z,98937.39
2019-03-10T11:37:22.458Z,98934.50
2019-03-10T11:39:57.539Z,98928.88
2019-03-10T11:42:48.902Z,98929.03
2019-03-10T11:45:24.712Z,98931.52
2019-03-10T11:48:14.383Z,98927.93
2019-03-10T11:50:54.041Z,98927.93
2019-03-10T11:53:37.284Z,98932.36
2019-03-10T11:56:22.773Z,98930.72
2019-03-10T11:59:12.486Z,98926.89
2019-03-10T12:02:01.911Z,98928.38
2019-03-10T12:04:48.158Z,98934.84
2019-03-10T12:07:31.323Z,98937.19
2019-03-10T12:09:58.383Z,98933.48
2019-03-10T12:12:25.441Z,98931.69
2019-03-10T12:14:52.686Z,98929.23
2019-03-10T12:17:19.753Z,98926.80
2019-03-10T12:20:19.044Z,98936.43
2019-03-10T12:22:46.151Z,98938.57
2019-03-10T12:25:13.386Z,98933.73
2019-03-10T12:27:40.579Z,98918.16
2019-03-10T12:30:08.543Z,98923.69
2019-03-10T12:32:35.681Z,98929.47
2019-03-10T12:35:03.130Z,98937.86
2019-03-10T12:37:30.215Z,98924.55
2019-03-10T12:39:57.273Z,98931.86
2019-03-10T12:42:24.385Z,98929.75
2019-03-10T12:44:51.538Z,98932.25
2019-03-10T12:47:18.630Z,98928.02
2019-03-10T12:49:45.679Z,98918.54
2019-03-10T12:52:12.750Z,98928.19
2019-03-10T12:54:39.970Z,98931.28
2019-03-10T12:57:07.024Z,98921.45
2019-03-10T12:59:34.129Z,98927.50
2019-03-10T13:02:01.185Z,98926.54
2019-03-10T13:04:28.259Z,98925.36
2019-03-10T13:06:55.385Z,98929.03
2019-03-10T13:09:22.451Z,98921.73
2019-03-10T13:11:49.528Z,98924.51
2019-03-10T13:14:16.639Z,98927.10
2019-03-10T13:16:43.952Z,98925.97
2019-03-10T13:19:11.017Z,98921.95
2019-03-10T13:21:38.183Z,98931.12
2019-03-10T13:24:05.474Z,98933.72
2019-03-10T13:26:32.714Z,98928.50
2019-03-10T13:28:59.781Z,98923.37
2019-03-10T13:31:26.933Z,98932.42
2019-03-10T13:33:54.004Z,98930.55
2019-03-10T13:36:21.170Z,98925.74
2019-03-10T13:38:48.245Z,98920.83
2019-03-10T13:41:15.306Z,98926.33
2019-03-10T13:43:42.408Z,98923.09
2019-03-10T13:46:09.481Z,98929.20
2019-03-10T13:48:36.699Z,98926.87
2019-03-10T13:51:03.764Z,98929.14
2019-03-10T13:53:33.271Z,98934.68
2019-03-10T13:56:00.393Z,98927.66
2019-03-10T13:58:27.475Z,98933.27
2019-03-10T14:00:54.604Z,98935.47
2019-03-10T14:03:21.661Z,98941.61
2019-03-10T14:05:48.745Z,98942.39
2019-03-10T14:08:15.817Z,98941.83
2019-03-10T14:10:42.925Z,98946.25
2019-03-10T14:13:10.016Z,98942.05
2019-03-10T14:15:37.086Z,98942.34
2019-03-10T14:18:04.265Z,98940.70
2019-03-10T14:20:31.334Z,98950.71
2019-03-10T14:22:58.420Z,98941.03
2019-03-10T14:25:25.512Z,98943.20
2019-03-10T14:27:52.609Z,98940.87
2019-03-10T14:30:19.857Z,98937.19
2019-03-10T14:32:46.918Z,98946.36
2019-03-10T14:35:14.568Z,98937.62
2019-03-10T14:37:41.641Z,98944.20
2019-03-10T14:40:09.528Z,98946.03
2019-03-10T14:42:37.116Z,98940.80
2019-03-10T14:45:09.201Z,98953.11
2019-03-10T14:47:36.279Z,98941.94
2019-03-10T14:50:06.659Z,98949.75
2019-03-10T14:52:33.803Z,98952.87
2019-03-10T14:55:00.896Z,98960.68
2019-03-10T14:57:27.976Z,98952.14
2019-03-10T14:59:55.076Z,98953.08
2019-03-10T15:02:22.146Z,98954.33
2019-03-10T15:04:49.195Z,98956.50
2019-03-10T15:07:16.272Z,98955.13
2019-03-10T15:09:43.363Z,98955.08
2019-03-10T15:12:10.463Z,98954.56
2019-03-10T15:14:37.669Z,98955.47
2019-03-10T15:17:04.737Z,98962.79
2019-03-10T15:19:31.849Z,98951.00
2019-03-10T15:21:58.977Z,98967.03
2019-03-10T15:24:26.089Z,98963.67
2019-03-10T15:26:53.163Z,98961.94
2019-03-10T15:29:20.239Z,98958.03
2019-03-10T15:31:47.347Z,98965.09
2019-03-10T15:34:14.439Z,98961.20
2019-03-10T15:36:41.540Z,98962.14
2019-03-10T15:39:08.815Z,98959.16
2019-03-10T15:41:35.936Z,98962.95
2019-03-10T15:44:03.029Z,98956.65
2019-03-10T15:46:33.188Z,98961.52
2019-03-10T15:49:00.298Z,98967.16
2019-03-10T15:51:27.361Z,98965.51
2019-03-10T15:53:54.536Z,98963.77
2019-03-10T15:56:21.611Z,98972.48
2019-03-10T15:58:48.682Z,98969.93
2019-03-10T16:01:15.851Z,98972.13
2019-03-10T16:03:42.978Z,98968.23
2019-03-10T16:06:10.035Z,98972.19
2019-03-10T16:08:37.103Z,98973.58
2019-03-10T16:11:04.184Z,98975.83
2019-03-10T16:13:31.296Z,98978.44
2019-03-10T16:15:58.348Z,98979.37
2019-03-10T16:18:25.523Z,98979.44
2019-03-10T16:20:52.613Z,98984.64
2019-03-10T16:23:19.692Z,98980.37
2019-03-10T16:25:48.376Z,98980.30
2019-03-10T16:28:15.440Z,98982.54
2019-03-10T16:30:42.522Z,98985.13
2019-03-10T16:33:09.591Z,98989.08
2019-03-10T16:35:36.648Z,98987.87
2019-03-10T16:38:03.715Z,98995.72
2019-03-10T16:40:30.783Z,98993.22
2019-03-10T16:42:57.852Z,99004.52
2019-03-10T16:45:24.931Z,98997.75
2019-03-10T16:47:52.097Z,98994.34
2019-03-10T16:50:19.359Z,98997.03
2019-03-10T16:52:46.463Z,98999.27
2019-03-10T16:55:13.636Z,99004.98
2019-03-10T16:57:40.694Z,98997.64
2019-03-10T17:00:09.453Z,99004.55
2019-03-10T17:02:36.527Z,99006.34
2019-03-10T17:05:04.517Z,99008.61
2019-03-10T17:07:31.606Z,99006.05
2019-03-10T17:09:58.711Z,98999.95
2019-03-10T17:12:25.762Z,99006.95
2019-03-10T17:14:52.824Z,99005.72
2019-03-10T17:17:19.887Z,99006.17
2019-03-10T17:19:46.960Z,99012.26
2019-03-10T17:22:14.096Z,99010.11
2019-03-10T17:24:41.107Z,99019.66
2019-03-10T17:27:08.167Z,99016.61
2019-03-10T17:29:35.264Z,99007.95
2019-03-10T17:32:02.323Z,99011.48
2019-03-10T17:34:29.379Z,99014.97
2019-03-10T17:36:56.466Z,99013.27
2019-03-10T17:39:23.552Z,99018.05
2019-03-10T17:41:50.608Z,99022.44
2019-03-10T17:44:17.692Z,99018.57
2019-03-10T17:46:44.758Z,99021.20
2019-03-10T17:49:11.913Z,99027.30
2019-03-10T17:51:39.052Z,99033.37
2019-03-10T17:54:06.108Z,99023.02
2019-03-10T17:56:33.172Z,99029.96
2019-03-10T17:59:00.327Z,99033.83
2019-03-10T18:01:27.444Z,99032.11
2019-03-10T18:03:54.534Z,99039.02
2019-03-10T18:06:21.607Z,99044.22
2019-03-10T18:08:48.858Z,99048.11
2019-03-10T18:11:15.945Z,99042.50
2019-03-10T18:13:43.041Z,99045.10
2019-03-10T18:16:10.206Z,99046.81
2019-03-10T18:18:37.276Z,99045.55
2019-03-10T18:21:04.542Z,99048.11
2019-03-10T18:23:31.683Z,99049.41
2019-03-10T18:25:58.758Z,99052.89
2019-03-10T18:28:25.820Z,99054.16
2019-03-10T18:30:53.117Z,99052.48
2019-03-10T18:33:20.221Z,99050.78
2019-03-10T18:35:47.274Z,99060.28
2019-03-10T18:38:14.402Z,99062.47
2019-03-10T18:40:41.845Z,99062.05
2019-03-10T18:43:08.936Z,99067.66
2019-03-10T18:45:36.029Z,99069.38
2019-03-10T18:48:06.765Z,99067.22
2019-03-10T18:50:41.907Z,99079.35
2019-03-10T18:53:09.018Z,99076.38
2019-03-10T18:55:36.107Z,99078.14
2019-03-10T18:58:03.561Z,99073.42
2019-03-10T19:00:33.868Z,99079.06
2019-03-10T19:03:01.138Z,99076.50
2019-03-10T19:05:28.206Z,99073.55
2019-03-10T19:07:55.278Z,99077.06
2019-03-10T19:10:25.080Z,99084.47
2019-03-10T19:12:52.286Z,99079.69
2019-03-10T19:15:21.628Z,99089.72
2019-03-10T19:17:48.844Z,99091.92
2019-03-10T19:20:16.340Z,99093.30
2019-03-10T19:22:46.422Z,99096.31
2019-03-10T19:25:15.127Z,99094.20
2019-03-10T19:27:45.146Z,99090.34
2019-03-10T19:30:14.969Z,99097.25
2019-03-10T19:32:44.940Z,99098.56
2019-03-10T19:35:12.039Z,99100.33
2019-03-10T19:37:39.144Z,99102.06
2019-03-10T19:40:07.139Z,99103.39
2019-03-10T19:42:34.341Z,99109.04
2019-03-10T19:45:01.447Z,99107.36
2019-03-10T19:47:28.524Z,99109.97
2019-03-10T19:49:55.665Z,99117.33
2019-03-10T19:52:22.774Z,99107.44
2019-03-10T19:54:49.850Z,99113.92
2019-03-10T19:57:17.050Z,99112.21
2019-03-10T19:59:49.080Z,99122.20
2019-03-10T20:02:16.229Z,99113.96
2019-03-10T20:04:43.420Z,99112.30
2019-03-10T20:07:10.584Z,99116.18
2019-03-10T20:09:37.695Z,99112.31
2019-03-10T20:12:04.818Z,99109.72
2019-03-10T20:14:32.025Z,99114.07
2019-03-10T20:16:59.126Z,99117.95
2019-03-10T20:19:26.194Z,99121.41
2019-03-10T20:21:53.316Z,99126.19
2019-03-10T20:24:22.261Z,99121.88
2019-03-10T20:26:49.391Z,99125.75
2019-03-10T20:29:16.503Z,99128.38
2019-03-10T20:31:44.218Z,99131.84
2019-03-10T20:34:11.357Z,99137.91
2019-03-10T20:36:38.439Z,99132.31
2019-03-10T20:39:07.275Z,99136.22
2019-03-10T20:41:34.388Z,99131.02
2019-03-10T20:44:01.630Z,99138.41
2019-03-10T20:46:28.739Z,99136.67
2019-03-10T20:48:57.207Z,99136.28
2019-03-10T20:51:24.323Z,99134.53
2019-03-10T20:53:51.464Z,99139.70
2019-03-10T20:56:18.577Z,99137.58
2019-03-10T20:58:47.660Z,99138.89
2019-03-10T21:01:14.757Z,99142.31
2019-03-10T21:03:41.897Z,99141.91
2019-03-10T21:06:09.073Z,99143.22
2019-03-10T21:08:36.212Z,99146.27
2019-03-10T21:11:03.404Z,99147.58
2019-03-10T21:13:30.482Z,99142.38
2019-03-10T21:15:57.531Z,99144.12
2019-03-10T21:18:24.588Z,99148.88
2019-03-10T21:20:51.705Z,99144.12
2019-03-10T21:23:18.767Z,99144.55
2019-03-10T21:25:45.893Z,99145.41
2019-03-10T21:28:12.967Z,99141.09
2019-03-10T21:30:40.028Z,99141.95
2019-03-10T21:33:07.105Z,99146.67
2019-03-10T21:35:34.162Z,99148.00
2019-03-10T21:38:01.260Z,99154.87
2019-03-10T21:40:28.333Z,99155.77
2019-03-10T21:42:55.403Z,99150.59
2019-03-10T21:45:22.544Z,99152.75
2019-03-10T21:47:49.598Z,99155.36
2019-03-10T21:50:16.779Z,99160.56
2019-03-10T21:52:44.016Z,99153.61
2019-03-10T21:55:11.318Z,99158.38
2019-03-10T21:57:38.966Z,99161.83
2019-03-10T22:00:07.471Z,99170.48
2019-03-10T22:02:34.516Z,99164.42
2019-03-10T22:05:01.606Z,99167.45
2019-03-10T22:07:28.699Z,99171.34
2019-03-10T22:09:55.773Z,99164.43
2019-03-10T22:12:22.843Z,99175.25
2019-03-10T22:14:49.966Z,99173.08
2019-03-10T22:17:17.031Z,99181.70
2019-03-10T22:19:44.122Z,99182.56
2019-03-10T22:22:11.410Z,99179.96
2019-03-10T22:24:38.562Z,99186.42
2019-03-10T22:27:05.627Z,99185.14
2019-03-10T22:29:32.743Z,99180.41
2019-03-10T22:31:59.826Z,99189.03
2019-03-10T22:34:26.891Z,99190.78
2019-03-10T22:36:53.948Z,99181.69
2019-03-10T22:39:21.092Z,99187.75
2019-03-10T22:41:48.170Z,99188.61
2019-03-10T22:44:15.236Z,99184.32
2019-03-10T22:46:43.599Z,99186.03
2019-03-10T22:49:10.696Z,99193.80
2019-03-10T22:51:37.930Z,99192.52
2019-03-10T22:54:05.013Z,99187.75
2019-03-10T22:56:32.158Z,99204.62
2019-03-10T22:58:59.459Z,99194.69
2019-03-10T23:01:26.554Z,99198.59
2019-03-10T23:03:53.695Z,99205.50
2019-03-10T23:06:20.857Z,99209.83
2019-03-10T23:08:47.866Z,99213.27
2019-03-10T23:11:14.924Z,99219.30
2019-03-10T23:13:42.022Z,99223.63
2019-03-10T23:16:09.079Z,99222.33
2019-03-10T23:18:36.161Z,99223.17
2019-03-10T23:21:03.275Z,99222.34
2019-03-10T23:23:30.447Z,99227.08
2019-03-10T23:25:57.574Z,99228.39
2019-03-10T23:28:24.706Z,99224.52
2019-03-10T23:30:51.815Z,99225.83
2019-03-10T23:33:18.876Z,99231.00
2019-03-10T23:35:45.996Z,99230.13
2019-03-10T23:38:13.071Z,99234.45
2019-03-10T23:40:40.155Z,99237.48
2019-03-10T23:43:07.226Z,99234.48
2019-03-10T23:45:34.281Z,99248.73
2019-03-10T23:48:01.349Z,99247.44
2019-03-10T23:50:28.438Z,99241.38
2019-03-10T23:52:55.539Z,99243.97
2019-03-10T23:55:22.577Z,99256.08
2019-03-10T23:57:49.660Z,99263.42
